sensor_id;sensor_type;location;lat;lon;timestamp;P1;durP1;ratioP1;P2;durP2;ratioP2
23080;SDS011;11708;50.570;8.532;2023-03-04T00:01:57;16.98;;;9.82;;
23080;SDS011;11708;50.570;8.532;2023-03-04T00:04:23;21.95;;;10.65;;
23080;SDS011;11708;50.570;8.532;2023-03-04T00:06:49;19.48;;;9.20;;
23080;SDS011;11708;50.570;8.532;2023-03-04T00:09:14;18.13;;;9.07;;
23080;SDS011;11708;50.570;8.532;2023-03-04T00:11:40;16.73;;;8.90;;
23080;SDS011;11708;50.570;8.532;2023-03-04T00:14:05;15.65;;;9.57;;
23080;SDS011;11708;50.570;8.532;2023-03-04T00:16:31;21.98;;;9.80;;
23080;SDS011;11708;50.570;8.532;2023-03-04T00:18:57;16.35;;;8.77;;
23080;SDS011;11708;50.570;8.532;2023-03-04T00:21:23;20.63;;;10.63;;
23080;SDS011;11708;50.570;8.532;2023-03-04T00:23:49;19.58;;;10.10;;
23080;SDS011;11708;50.570;8.532;2023-03-04T00:26:15;19.10;;;10.00;;
23080;SDS011;11708;50.570;8.532;2023-03-04T00:28:41;18.35;;;9.85;;
23080;SDS011;11708;50.570;8.532;2023-03-04T00:31:07;19.02;;;9.68;;
23080;SDS011;11708;50.570;8.532;2023-03-04T00:33:33;21.08;;;9.88;;
23080;SDS011;11708;50.570;8.532;2023-03-04T00:35:59;20.73;;;9.68;;
23080;SDS011;11708;50.570;8.532;2023-03-04T00:38:25;20.75;;;10.07;;
23080;SDS011;11708;50.570;8.532;2023-03-04T00:40:51;16.67;;;9.48;;
23080;SDS011;11708;50.570;8.532;2023-03-04T00:43:17;18.50;;;9.18;;
23080;SDS011;11708;50.570;8.532;2023-03-04T00:45:43;22.05;;;10.25;;
23080;SDS011;11708;50.570;8.532;2023-03-04T00:48:08;22.02;;;10.52;;
23080;SDS011;11708;50.570;8.532;2023-03-04T00:50:34;21.25;;;10.63;;
23080;SDS011;11708;50.570;8.532;2023-03-04T00:52:59;22.40;;;10.07;;
23080;SDS011;11708;50.570;8.532;2023-03-04T00:55:25;22.85;;;11.07;;
23080;SDS011;11708;50.570;8.532;2023-03-04T00:57:51;22.50;;;10.48;;
23080;SDS011;11708;50.570;8.532;2023-03-04T01:00:17;21.10;;;9.35;;
23080;SDS011;11708;50.570;8.532;2023-03-04T01:02:42;22.30;;;9.60;;
23080;SDS011;11708;50.570;8.532;2023-03-04T01:05:08;21.05;;;10.13;;
23080;SDS011;11708;50.570;8.532;2023-03-04T01:07:34;19.02;;;9.55;;
23080;SDS011;11708;50.570;8.532;2023-03-04T01:10:00;18.17;;;10.02;;
23080;SDS011;11708;50.570;8.532;2023-03-04T01:12:26;19.83;;;10.10;;
23080;SDS011;11708;50.570;8.532;2023-03-04T01:14:52;20.02;;;10.35;;
23080;SDS011;11708;50.570;8.532;2023-03-04T01:17:18;20.70;;;10.05;;
23080;SDS011;11708;50.570;8.532;2023-03-04T01:19:43;17.27;;;9.50;;
23080;SDS011;11708;50.570;8.532;2023-03-04T01:22:09;19.25;;;9.88;;
23080;SDS011;11708;50.570;8.532;2023-03-04T01:24:36;21.60;;;10.35;;
23080;SDS011;11708;50.570;8.532;2023-03-04T01:27:01;26.05;;;11.27;;
23080;SDS011;11708;50.570;8.532;2023-03-04T01:29:27;23.55;;;10.52;;
23080;SDS011;11708;50.570;8.532;2023-03-04T01:31:53;23.38;;;11.43;;
23080;SDS011;11708;50.570;8.532;2023-03-04T01:34:18;21.42;;;10.77;;
23080;SDS011;11708;50.570;8.532;2023-03-04T01:36:44;23.17;;;10.95;;
23080;SDS011;11708;50.570;8.532;2023-03-04T01:39:09;24.38;;;10.75;;
23080;SDS011;11708;50.570;8.532;2023-03-04T01:41:35;26.13;;;11.57;;
23080;SDS011;11708;50.570;8.532;2023-03-04T01:44:00;28.48;;;12.68;;
23080;SDS011;11708;50.570;8.532;2023-03-04T01:46:26;24.23;;;11.45;;
23080;SDS011;11708;50.570;8.532;2023-03-04T01:48:53;27.13;;;11.45;;
23080;SDS011;11708;50.570;8.532;2023-03-04T01:51:19;29.02;;;11.98;;
23080;SDS011;11708;50.570;8.532;2023-03-04T01:53:46;23.98;;;11.40;;
23080;SDS011;11708;50.570;8.532;2023-03-04T01:59:08;27.15;;;11.18;;
23080;SDS011;11708;50.570;8.532;2023-03-04T02:01:36;24.42;;;11.40;;
23080;SDS011;11708;50.570;8.532;2023-03-04T02:04:02;26.23;;;11.70;;
23080;SDS011;11708;50.570;8.532;2023-03-04T02:06:28;27.80;;;12.32;;
23080;SDS011;11708;50.570;8.532;2023-03-04T02:08:55;27.63;;;13.27;;
23080;SDS011;11708;50.570;8.532;2023-03-04T02:11:21;26.08;;;11.63;;
23080;SDS011;11708;50.570;8.532;2023-03-04T02:13:46;26.23;;;11.68;;
23080;SDS011;11708;50.570;8.532;2023-03-04T02:16:12;28.23;;;12.65;;
23080;SDS011;11708;50.570;8.532;2023-03-04T02:18:38;30.42;;;13.07;;
23080;SDS011;11708;50.570;8.532;2023-03-04T02:21:04;28.15;;;11.57;;
23080;SDS011;11708;50.570;8.532;2023-03-04T02:23:48;21.38;;;11.00;;
23080;SDS011;11708;50.570;8.532;2023-03-04T02:26:24;23.98;;;12.05;;
23080;SDS011;11708;50.570;8.532;2023-03-04T02:28:52;26.98;;;12.13;;
23080;SDS011;11708;50.570;8.532;2023-03-04T02:33:46;27.85;;;12.30;;
23080;SDS011;11708;50.570;8.532;2023-03-04T02:36:12;29.63;;;12.80;;
23080;SDS011;11708;50.570;8.532;2023-03-04T02:38:38;26.45;;;13.40;;
23080;SDS011;11708;50.570;8.532;2023-03-04T02:41:03;27.88;;;13.80;;
23080;SDS011;11708;50.570;8.532;2023-03-04T02:43:30;26.08;;;12.18;;
23080;SDS011;11708;50.570;8.532;2023-03-04T02:45:56;29.30;;;12.38;;
23080;SDS011;11708;50.570;8.532;2023-03-04T02:48:21;26.58;;;11.93;;
23080;SDS011;11708;50.570;8.532;2023-03-04T02:50:51;26.13;;;12.50;;
23080;SDS011;11708;50.570;8.532;2023-03-04T02:53:18;26.25;;;12.25;;
23080;SDS011;11708;50.570;8.532;2023-03-04T02:55:45;30.45;;;13.38;;
23080;SDS011;11708;50.570;8.532;2023-03-04T02:58:11;30.52;;;12.80;;
23080;SDS011;11708;50.570;8.532;2023-03-04T03:00:37;30.40;;;12.80;;
23080;SDS011;11708;50.570;8.532;2023-03-04T03:03:03;31.67;;;12.55;;
23080;SDS011;11708;50.570;8.532;2023-03-04T03:05:30;33.85;;;13.32;;
23080;SDS011;11708;50.570;8.532;2023-03-04T03:07:57;32.05;;;14.88;;
23080;SDS011;11708;50.570;8.532;2023-03-04T03:10:22;30.25;;;13.68;;
23080;SDS011;11708;50.570;8.532;2023-03-04T03:12:49;34.35;;;15.50;;
23080;SDS011;11708;50.570;8.532;2023-03-04T03:15:14;28.50;;;12.90;;
23080;SDS011;11708;50.570;8.532;2023-03-04T03:17:40;29.65;;;13.25;;
23080;SDS011;11708;50.570;8.532;2023-03-04T03:20:06;27.02;;;13.38;;
23080;SDS011;11708;50.570;8.532;2023-03-04T03:22:32;30.05;;;13.23;;
23080;SDS011;11708;50.570;8.532;2023-03-04T03:24:58;29.25;;;13.30;;
23080;SDS011;11708;50.570;8.532;2023-03-04T03:27:23;28.85;;;13.35;;
23080;SDS011;11708;50.570;8.532;2023-03-04T03:29:49;28.77;;;13.32;;
23080;SDS011;11708;50.570;8.532;2023-03-04T03:32:14;30.13;;;13.40;;
23080;SDS011;11708;50.570;8.532;2023-03-04T03:34:40;36.45;;;14.15;;
23080;SDS011;11708;50.570;8.532;2023-03-04T03:37:05;33.05;;;14.30;;
23080;SDS011;11708;50.570;8.532;2023-03-04T03:39:31;35.63;;;13.98;;
23080;SDS011;11708;50.570;8.532;2023-03-04T03:41:57;29.05;;;13.45;;
23080;SDS011;11708;50.570;8.532;2023-03-04T03:44:22;31.83;;;14.00;;
23080;SDS011;11708;50.570;8.532;2023-03-04T03:46:48;33.45;;;15.23;;
23080;SDS011;11708;50.570;8.532;2023-03-04T03:49:13;32.42;;;14.13;;
23080;SDS011;11708;50.570;8.532;2023-03-04T03:51:41;37.30;;;14.40;;
23080;SDS011;11708;50.570;8.532;2023-03-04T03:54:06;33.58;;;14.35;;
23080;SDS011;11708;50.570;8.532;2023-03-04T03:56:32;31.08;;;13.10;;
23080;SDS011;11708;50.570;8.532;2023-03-04T03:58:58;33.58;;;14.77;;
23080;SDS011;11708;50.570;8.532;2023-03-04T04:01:24;38.22;;;15.05;;
23080;SDS011;11708;50.570;8.532;2023-03-04T04:03:49;32.72;;;14.80;;
23080;SDS011;11708;50.570;8.532;2023-03-04T04:06:15;34.58;;;15.45;;
23080;SDS011;11708;50.570;8.532;2023-03-04T04:08:40;34.20;;;15.48;;
23080;SDS011;11708;50.570;8.532;2023-03-04T04:11:08;31.92;;;13.63;;
23080;SDS011;11708;50.570;8.532;2023-03-04T04:13:34;33.38;;;15.15;;
23080;SDS011;11708;50.570;8.532;2023-03-04T04:16:00;38.58;;;15.38;;
23080;SDS011;11708;50.570;8.532;2023-03-04T04:18:25;30.70;;;13.80;;
23080;SDS011;11708;50.570;8.532;2023-03-04T04:20:52;32.85;;;14.60;;
23080;SDS011;11708;50.570;8.532;2023-03-04T04:23:18;31.67;;;14.10;;
23080;SDS011;11708;50.570;8.532;2023-03-04T04:25:43;31.42;;;14.70;;
23080;SDS011;11708;50.570;8.532;2023-03-04T04:28:09;38.70;;;16.02;;
23080;SDS011;11708;50.570;8.532;2023-03-04T04:30:34;35.95;;;15.77;;
23080;SDS011;11708;50.570;8.532;2023-03-04T04:33:00;39.95;;;16.15;;
23080;SDS011;11708;50.570;8.532;2023-03-04T04:35:28;35.28;;;17.13;;
23080;SDS011;11708;50.570;8.532;2023-03-04T04:37:55;37.80;;;15.57;;
23080;SDS011;11708;50.570;8.532;2023-03-04T04:40:21;36.90;;;15.27;;
23080;SDS011;11708;50.570;8.532;2023-03-04T04:42:46;36.92;;;15.38;;
23080;SDS011;11708;50.570;8.532;2023-03-04T04:45:12;36.35;;;15.07;;
23080;SDS011;11708;50.570;8.532;2023-03-04T04:47:37;34.40;;;14.60;;
23080;SDS011;11708;50.570;8.532;2023-03-04T04:50:03;32.70;;;14.90;;
23080;SDS011;11708;50.570;8.532;2023-03-04T04:52:29;29.63;;;14.43;;
23080;SDS011;11708;50.570;8.532;2023-03-04T04:54:55;35.75;;;15.38;;
23080;SDS011;11708;50.570;8.532;2023-03-04T04:57:20;30.63;;;14.27;;
23080;SDS011;11708;50.570;8.532;2023-03-04T04:59:46;35.78;;;15.20;;
23080;SDS011;11708;50.570;8.532;2023-03-04T05:02:12;28.80;;;13.73;;
23080;SDS011;11708;50.570;8.532;2023-03-04T05:04:38;42.42;;;16.13;;
23080;SDS011;11708;50.570;8.532;2023-03-04T05:07:03;36.13;;;16.08;;
23080;SDS011;11708;50.570;8.532;2023-03-04T05:09:29;35.80;;;15.45;;
23080;SDS011;11708;50.570;8.532;2023-03-04T05:11:54;35.38;;;15.38;;
23080;SDS011;11708;50.570;8.532;2023-03-04T05:14:20;33.70;;;15.52;;
23080;SDS011;11708;50.570;8.532;2023-03-04T05:16:45;32.50;;;15.10;;
23080;SDS011;11708;50.570;8.532;2023-03-04T05:19:11;28.35;;;13.98;;
23080;SDS011;11708;50.570;8.532;2023-03-04T05:21:36;39.42;;;15.35;;
23080;SDS011;11708;50.570;8.532;2023-03-04T05:24:02;32.83;;;14.57;;
23080;SDS011;11708;50.570;8.532;2023-03-04T05:26:28;31.65;;;14.70;;
23080;SDS011;11708;50.570;8.532;2023-03-04T05:28:53;44.50;;;17.38;;
23080;SDS011;11708;50.570;8.532;2023-03-04T05:31:19;36.03;;;15.32;;
23080;SDS011;11708;50.570;8.532;2023-03-04T05:33:44;35.17;;;14.40;;
23080;SDS011;11708;50.570;8.532;2023-03-04T05:36:10;34.10;;;15.95;;
23080;SDS011;11708;50.570;8.532;2023-03-04T05:38:35;33.50;;;15.55;;
23080;SDS011;11708;50.570;8.532;2023-03-04T05:41:02;35.00;;;15.50;;
23080;SDS011;11708;50.570;8.532;2023-03-04T05:43:30;32.47;;;14.15;;
23080;SDS011;11708;50.570;8.532;2023-03-04T05:45:58;33.30;;;14.85;;
23080;SDS011;11708;50.570;8.532;2023-03-04T05:48:23;29.48;;;15.05;;
23080;SDS011;11708;50.570;8.532;2023-03-04T05:50:55;34.67;;;14.98;;
23080;SDS011;11708;50.570;8.532;2023-03-04T05:53:22;30.55;;;14.00;;
23080;SDS011;11708;50.570;8.532;2023-03-04T05:55:48;29.65;;;12.95;;
23080;SDS011;11708;50.570;8.532;2023-03-04T05:58:14;32.70;;;14.52;;
23080;SDS011;11708;50.570;8.532;2023-03-04T06:00:40;30.52;;;14.10;;
23080;SDS011;11708;50.570;8.532;2023-03-04T06:03:07;33.63;;;15.07;;
23080;SDS011;11708;50.570;8.532;2023-03-04T06:05:46;30.30;;;13.70;;
23080;SDS011;11708;50.570;8.532;2023-03-04T06:08:12;28.42;;;13.30;;
23080;SDS011;11708;50.570;8.532;2023-03-04T06:10:38;35.47;;;15.18;;
23080;SDS011;11708;50.570;8.532;2023-03-04T06:13:05;34.67;;;14.88;;
23080;SDS011;11708;50.570;8.532;2023-03-04T06:15:31;30.40;;;15.30;;
23080;SDS011;11708;50.570;8.532;2023-03-04T06:17:57;32.80;;;15.45;;
23080;SDS011;11708;50.570;8.532;2023-03-04T06:20:22;29.60;;;14.68;;
23080;SDS011;11708;50.570;8.532;2023-03-04T06:22:48;35.90;;;15.98;;
23080;SDS011;11708;50.570;8.532;2023-03-04T06:25:13;29.98;;;14.40;;
23080;SDS011;11708;50.570;8.532;2023-03-04T06:27:39;32.83;;;14.50;;
23080;SDS011;11708;50.570;8.532;2023-03-04T06:30:05;25.10;;;13.80;;
23080;SDS011;11708;50.570;8.532;2023-03-04T06:32:31;34.28;;;14.35;;
23080;SDS011;11708;50.570;8.532;2023-03-04T06:34:56;27.73;;;13.50;;
23080;SDS011;11708;50.570;8.532;2023-03-04T06:37:22;30.95;;;14.88;;
23080;SDS011;11708;50.570;8.532;2023-03-04T06:39:47;26.45;;;12.70;;
23080;SDS011;11708;50.570;8.532;2023-03-04T06:42:13;30.58;;;14.57;;
23080;SDS011;11708;50.570;8.532;2023-03-04T06:44:39;28.75;;;13.63;;
23080;SDS011;11708;50.570;8.532;2023-03-04T06:47:05;30.40;;;14.07;;
23080;SDS011;11708;50.570;8.532;2023-03-04T06:49:30;29.65;;;14.48;;
23080;SDS011;11708;50.570;8.532;2023-03-04T06:51:56;33.13;;;13.90;;
23080;SDS011;11708;50.570;8.532;2023-03-04T06:54:22;25.00;;;12.98;;
23080;SDS011;11708;50.570;8.532;2023-03-04T06:56:47;30.25;;;14.00;;
23080;SDS011;11708;50.570;8.532;2023-03-04T06:59:13;24.58;;;12.70;;
23080;SDS011;11708;50.570;8.532;2023-03-04T07:01:38;23.90;;;11.85;;
23080;SDS011;11708;50.570;8.532;2023-03-04T07:04:04;25.80;;;12.90;;
23080;SDS011;11708;50.570;8.532;2023-03-04T07:06:30;26.48;;;12.77;;
23080;SDS011;11708;50.570;8.532;2023-03-04T07:08:56;28.33;;;13.45;;
23080;SDS011;11708;50.570;8.532;2023-03-04T07:11:22;28.23;;;12.90;;
23080;SDS011;11708;50.570;8.532;2023-03-04T07:13:49;27.15;;;13.63;;
23080;SDS011;11708;50.570;8.532;2023-03-04T07:16:17;24.85;;;12.57;;
23080;SDS011;11708;50.570;8.532;2023-03-04T07:18:45;29.42;;;12.60;;
23080;SDS011;11708;50.570;8.532;2023-03-04T07:21:11;28.20;;;12.55;;
23080;SDS011;11708;50.570;8.532;2023-03-04T07:23:38;24.85;;;11.65;;
23080;SDS011;11708;50.570;8.532;2023-03-04T07:26:04;29.92;;;13.07;;
23080;SDS011;11708;50.570;8.532;2023-03-04T07:28:30;23.60;;;10.95;;
23080;SDS011;11708;50.570;8.532;2023-03-04T07:30:55;27.23;;;11.07;;
23080;SDS011;11708;50.570;8.532;2023-03-04T07:33:21;22.63;;;11.35;;
23080;SDS011;11708;50.570;8.532;2023-03-04T07:35:47;24.15;;;11.20;;
23080;SDS011;11708;50.570;8.532;2023-03-04T07:38:12;27.48;;;10.77;;
23080;SDS011;11708;50.570;8.532;2023-03-04T07:40:38;24.52;;;9.73;;
23080;SDS011;11708;50.570;8.532;2023-03-04T07:43:04;19.10;;;9.07;;
23080;SDS011;11708;50.570;8.532;2023-03-04T07:45:29;25.67;;;10.18;;
23080;SDS011;11708;50.570;8.532;2023-03-04T07:47:56;21.88;;;9.95;;
23080;SDS011;11708;50.570;8.532;2023-03-04T07:50:22;20.75;;;10.13;;
23080;SDS011;11708;50.570;8.532;2023-03-04T07:52:48;28.25;;;11.60;;
23080;SDS011;11708;50.570;8.532;2023-03-04T07:55:17;25.75;;;10.48;;
23080;SDS011;11708;50.570;8.532;2023-03-04T07:57:44;21.92;;;8.95;;
23080;SDS011;11708;50.570;8.532;2023-03-04T08:00:12;20.73;;;9.05;;
23080;SDS011;11708;50.570;8.532;2023-03-04T08:02:39;20.02;;;9.00;;
23080;SDS011;11708;50.570;8.532;2023-03-04T08:05:05;23.85;;;9.55;;
23080;SDS011;11708;50.570;8.532;2023-03-04T08:07:32;21.10;;;7.75;;
23080;SDS011;11708;50.570;8.532;2023-03-04T08:09:57;20.15;;;7.82;;
23080;SDS011;11708;50.570;8.532;2023-03-04T08:12:23;22.80;;;8.48;;
23080;SDS011;11708;50.570;8.532;2023-03-04T08:14:49;18.10;;;7.88;;
23080;SDS011;11708;50.570;8.532;2023-03-04T08:17:15;22.23;;;8.52;;
23080;SDS011;11708;50.570;8.532;2023-03-04T08:19:41;19.98;;;7.40;;
23080;SDS011;11708;50.570;8.532;2023-03-04T08:22:07;19.75;;;6.60;;
23080;SDS011;11708;50.570;8.532;2023-03-04T08:24:32;16.92;;;6.88;;
23080;SDS011;11708;50.570;8.532;2023-03-04T08:26:58;26.13;;;7.55;;
23080;SDS011;11708;50.570;8.532;2023-03-04T08:29:24;20.05;;;7.32;;
23080;SDS011;11708;50.570;8.532;2023-03-04T08:31:51;24.85;;;8.82;;
23080;SDS011;11708;50.570;8.532;2023-03-04T08:34:18;18.48;;;7.75;;
23080;SDS011;11708;50.570;8.532;2023-03-04T08:36:45;21.05;;;8.40;;
23080;SDS011;11708;50.570;8.532;2023-03-04T08:39:12;19.13;;;7.38;;
23080;SDS011;11708;50.570;8.532;2023-03-04T08:41:39;20.25;;;8.00;;
23080;SDS011;11708;50.570;8.532;2023-03-04T08:44:05;23.63;;;8.65;;
23080;SDS011;11708;50.570;8.532;2023-03-04T08:46:32;20.00;;;7.63;;
23080;SDS011;11708;50.570;8.532;2023-03-04T08:48:58;21.33;;;8.55;;
23080;SDS011;11708;50.570;8.532;2023-03-04T08:51:24;20.77;;;7.88;;
23080;SDS011;11708;50.570;8.532;2023-03-04T08:53:49;25.48;;;8.07;;
23080;SDS011;11708;50.570;8.532;2023-03-04T08:56:15;19.05;;;6.97;;
23080;SDS011;11708;50.570;8.532;2023-03-04T08:58:41;18.98;;;7.60;;
23080;SDS011;11708;50.570;8.532;2023-03-04T09:01:10;15.85;;;6.88;;
23080;SDS011;11708;50.570;8.532;2023-03-04T09:03:37;18.75;;;7.05;;
23080;SDS011;11708;50.570;8.532;2023-03-04T09:06:03;19.25;;;6.35;;
23080;SDS011;11708;50.570;8.532;2023-03-04T09:08:30;18.92;;;6.30;;
23080;SDS011;11708;50.570;8.532;2023-03-04T09:10:56;15.20;;;5.20;;
23080;SDS011;11708;50.570;8.532;2023-03-04T09:13:22;12.55;;;5.78;;
23080;SDS011;11708;50.570;8.532;2023-03-04T09:15:49;10.93;;;5.07;;
23080;SDS011;11708;50.570;8.532;2023-03-04T09:18:17;11.43;;;5.03;;
23080;SDS011;11708;50.570;8.532;2023-03-04T09:20:44;14.48;;;4.85;;
23080;SDS011;11708;50.570;8.532;2023-03-04T09:23:10;16.38;;;4.85;;
23080;SDS011;11708;50.570;8.532;2023-03-04T09:25:36;13.23;;;5.30;;
23080;SDS011;11708;50.570;8.532;2023-03-04T09:28:03;19.05;;;5.40;;
23080;SDS011;11708;50.570;8.532;2023-03-04T09:30:29;13.32;;;5.35;;
23080;SDS011;11708;50.570;8.532;2023-03-04T09:32:54;16.83;;;4.85;;
23080;SDS011;11708;50.570;8.532;2023-03-04T09:35:21;13.18;;;4.78;;
23080;SDS011;11708;50.570;8.532;2023-03-04T09:37:47;28.50;;;12.50;;
23080;SDS011;11708;50.570;8.532;2023-03-04T09:40:17;11.85;;;4.40;;
23080;SDS011;11708;50.570;8.532;2023-03-04T09:42:46;14.68;;;4.10;;
23080;SDS011;11708;50.570;8.532;2023-03-04T09:45:16;8.05;;;3.92;;
23080;SDS011;11708;50.570;8.532;2023-03-04T09:47:44;13.00;;;3.80;;
23080;SDS011;11708;50.570;8.532;2023-03-04T09:50:12;7.18;;;3.70;;
23080;SDS011;11708;50.570;8.532;2023-03-04T09:55:44;10.38;;;3.83;;
23080;SDS011;11708;50.570;8.532;2023-03-04T10:01:16;11.15;;;4.10;;
23080;SDS011;11708;50.570;8.532;2023-03-04T10:06:31;10.70;;;3.72;;
23080;SDS011;11708;50.570;8.532;2023-03-04T10:08:58;9.18;;;3.45;;
23080;SDS011;11708;50.570;8.532;2023-03-04T10:14:34;8.38;;;2.97;;
23080;SDS011;11708;50.570;8.532;2023-03-04T10:17:11;8.73;;;3.30;;
23080;SDS011;11708;50.570;8.532;2023-03-04T10:20:15;9.30;;;3.45;;
23080;SDS011;11708;50.570;8.532;2023-03-04T10:22:49;8.48;;;3.17;;
23080;SDS011;11708;50.570;8.532;2023-03-04T10:25:26;9.63;;;2.88;;
23080;SDS011;11708;50.570;8.532;2023-03-04T10:28:00;6.43;;;2.78;;
23080;SDS011;11708;50.570;8.532;2023-03-04T10:33:15;8.05;;;2.75;;
23080;SDS011;11708;50.570;8.532;2023-03-04T10:35:55;5.35;;;2.80;;
23080;SDS011;11708;50.570;8.532;2023-03-04T10:38:28;6.30;;;2.40;;
23080;SDS011;11708;50.570;8.532;2023-03-04T10:43:37;4.18;;;2.35;;
23080;SDS011;11708;50.570;8.532;2023-03-04T10:46:03;6.75;;;2.55;;
23080;SDS011;11708;50.570;8.532;2023-03-04T10:48:30;7.80;;;2.45;;
23080;SDS011;11708;50.570;8.532;2023-03-04T10:53:42;5.47;;;2.15;;
23080;SDS011;11708;50.570;8.532;2023-03-04T11:01:55;4.82;;;2.40;;
23080;SDS011;11708;50.570;8.532;2023-03-04T11:04:25;4.90;;;1.88;;
23080;SDS011;11708;50.570;8.532;2023-03-04T11:06:52;2.80;;;1.60;;
23080;SDS011;11708;50.570;8.532;2023-03-04T11:09:28;4.10;;;1.70;;
23080;SDS011;11708;50.570;8.532;2023-03-04T11:11:58;6.50;;;2.67;;
23080;SDS011;11708;50.570;8.532;2023-03-04T11:14:27;5.13;;;2.13;;
23080;SDS011;11708;50.570;8.532;2023-03-04T11:17:24;4.82;;;1.60;;
23080;SDS011;11708;50.570;8.532;2023-03-04T11:19:54;3.63;;;1.92;;
23080;SDS011;11708;50.570;8.532;2023-03-04T11:22:35;2.38;;;1.73;;
23080;SDS011;11708;50.570;8.532;2023-03-04T11:25:07;4.18;;;1.58;;
23080;SDS011;11708;50.570;8.532;2023-03-04T11:27:43;2.88;;;1.63;;
23080;SDS011;11708;50.570;8.532;2023-03-04T11:30:18;3.38;;;1.88;;
23080;SDS011;11708;50.570;8.532;2023-03-04T11:32:55;5.20;;;1.98;;
23080;SDS011;11708;50.570;8.532;2023-03-04T11:38:57;3.50;;;1.60;;
23080;SDS011;11708;50.570;8.532;2023-03-04T11:43:57;4.35;;;1.60;;
23080;SDS011;11708;50.570;8.532;2023-03-04T11:49:17;4.90;;;1.83;;
23080;SDS011;11708;50.570;8.532;2023-03-04T11:55:20;5.35;;;1.85;;
23080;SDS011;11708;50.570;8.532;2023-03-04T12:06:11;3.42;;;1.52;;
23080;SDS011;11708;50.570;8.532;2023-03-04T12:15:14;3.80;;;1.80;;
23080;SDS011;11708;50.570;8.532;2023-03-04T12:17:56;3.25;;;1.63;;
23080;SDS011;11708;50.570;8.532;2023-03-04T12:20:40;2.65;;;1.45;;
23080;SDS011;11708;50.570;8.532;2023-03-04T12:28:38;4.75;;;2.00;;
23080;SDS011;11708;50.570;8.532;2023-03-04T12:34:15;4.53;;;1.67;;
23080;SDS011;11708;50.570;8.532;2023-03-04T12:44:57;4.00;;;1.55;;
23080;SDS011;11708;50.570;8.532;2023-03-04T12:50:29;3.10;;;1.80;;
23080;SDS011;11708;50.570;8.532;2023-03-04T12:55:50;4.65;;;1.60;;
23080;SDS011;11708;50.570;8.532;2023-03-04T12:58:22;4.30;;;1.38;;
23080;SDS011;11708;50.570;8.532;2023-03-04T13:09:12;4.40;;;1.83;;
23080;SDS011;11708;50.570;8.532;2023-03-04T13:11:53;2.90;;;1.70;;
23080;SDS011;11708;50.570;8.532;2023-03-04T13:14:28;2.80;;;1.55;;
23080;SDS011;11708;50.570;8.532;2023-03-04T13:16:56;1.80;;;1.13;;
23080;SDS011;11708;50.570;8.532;2023-03-04T13:19:45;2.58;;;1.35;;
23080;SDS011;11708;50.570;8.532;2023-03-04T13:24:57;3.08;;;1.67;;
23080;SDS011;11708;50.570;8.532;2023-03-04T13:32:58;2.20;;;1.70;;
23080;SDS011;11708;50.570;8.532;2023-03-04T13:43:47;3.30;;;2.05;;
23080;SDS011;11708;50.570;8.532;2023-03-04T13:51:24;2.88;;;1.60;;
23080;SDS011;11708;50.570;8.532;2023-03-04T13:53:53;2.42;;;1.73;;
23080;SDS011;11708;50.570;8.532;2023-03-04T13:56:33;2.55;;;1.65;;
23080;SDS011;11708;50.570;8.532;2023-03-04T14:01:47;4.90;;;1.48;;
23080;SDS011;11708;50.570;8.532;2023-03-04T14:04:28;1.95;;;1.50;;
23080;SDS011;11708;50.570;8.532;2023-03-04T14:06:56;2.83;;;1.50;;
23080;SDS011;11708;50.570;8.532;2023-03-04T14:09:25;2.03;;;1.40;;
23080;SDS011;11708;50.570;8.532;2023-03-04T14:11:57;2.70;;;1.77;;
23080;SDS011;11708;50.570;8.532;2023-03-04T14:14:27;2.60;;;1.48;;
23080;SDS011;11708;50.570;8.532;2023-03-04T14:16:57;2.20;;;1.60;;
23080;SDS011;11708;50.570;8.532;2023-03-04T14:21:51;2.63;;;1.95;;
23080;SDS011;11708;50.570;8.532;2023-03-04T14:24:17;4.47;;;2.20;;
23080;SDS011;11708;50.570;8.532;2023-03-04T14:26:44;5.03;;;2.28;;
23080;SDS011;11708;50.570;8.532;2023-03-04T14:31:56;4.50;;;3.03;;
23080;SDS011;11708;50.570;8.532;2023-03-04T14:37:00;5.72;;;3.10;;
23080;SDS011;11708;50.570;8.532;2023-03-04T14:39:29;6.65;;;2.90;;
23080;SDS011;11708;50.570;8.532;2023-03-04T14:41:57;3.10;;;2.53;;
23080;SDS011;11708;50.570;8.532;2023-03-04T14:44:31;4.90;;;2.67;;
23080;SDS011;11708;50.570;8.532;2023-03-04T14:47:07;4.90;;;2.83;;
23080;SDS011;11708;50.570;8.532;2023-03-04T14:49:57;4.75;;;2.42;;
23080;SDS011;11708;50.570;8.532;2023-03-04T14:52:33;3.83;;;3.38;;
23080;SDS011;11708;50.570;8.532;2023-03-04T14:57:38;3.17;;;2.50;;
23080;SDS011;11708;50.570;8.532;2023-03-04T15:02:55;4.25;;;2.42;;
23080;SDS011;11708;50.570;8.532;2023-03-04T15:07:57;3.95;;;2.80;;
23080;SDS011;11708;50.570;8.532;2023-03-04T15:10:29;3.70;;;2.60;;
23080;SDS011;11708;50.570;8.532;2023-03-04T15:13:01;3.38;;;2.35;;
23080;SDS011;11708;50.570;8.532;2023-03-04T15:18:13;4.45;;;3.25;;
23080;SDS011;11708;50.570;8.532;2023-03-04T15:20:41;5.03;;;2.70;;
23080;SDS011;11708;50.570;8.532;2023-03-04T15:23:24;4.55;;;2.35;;
23080;SDS011;11708;50.570;8.532;2023-03-04T15:25:51;3.67;;;2.03;;
23080;SDS011;11708;50.570;8.532;2023-03-04T15:28:18;3.97;;;2.50;;
23080;SDS011;11708;50.570;8.532;2023-03-04T15:30:44;4.85;;;2.67;;
23080;SDS011;11708;50.570;8.532;2023-03-04T15:33:11;3.47;;;2.25;;
23080;SDS011;11708;50.570;8.532;2023-03-04T15:35:38;4.15;;;2.38;;
23080;SDS011;11708;50.570;8.532;2023-03-04T15:38:06;2.45;;;2.08;;
23080;SDS011;11708;50.570;8.532;2023-03-04T15:40:33;3.00;;;2.30;;
23080;SDS011;11708;50.570;8.532;2023-03-04T15:43:04;2.75;;;2.17;;
23080;SDS011;11708;50.570;8.532;2023-03-04T15:45:31;4.20;;;2.60;;
23080;SDS011;11708;50.570;8.532;2023-03-04T15:48:03;4.55;;;2.42;;
23080;SDS011;11708;50.570;8.532;2023-03-04T15:50:32;3.40;;;2.30;;
23080;SDS011;11708;50.570;8.532;2023-03-04T15:53:04;3.85;;;2.42;;
23080;SDS011;11708;50.570;8.532;2023-03-04T15:55:59;3.80;;;2.28;;
23080;SDS011;11708;50.570;8.532;2023-03-04T15:58:26;3.33;;;2.13;;
23080;SDS011;11708;50.570;8.532;2023-03-04T16:00:53;3.45;;;2.17;;
23080;SDS011;11708;50.570;8.532;2023-03-04T16:03:18;3.47;;;2.33;;
23080;SDS011;11708;50.570;8.532;2023-03-04T16:05:48;5.55;;;2.50;;
23080;SDS011;11708;50.570;8.532;2023-03-04T16:08:16;4.53;;;2.20;;
23080;SDS011;11708;50.570;8.532;2023-03-04T16:10:44;3.47;;;2.33;;
23080;SDS011;11708;50.570;8.532;2023-03-04T16:13:13;3.67;;;2.65;;
23080;SDS011;11708;50.570;8.532;2023-03-04T16:15:40;6.32;;;3.00;;
23080;SDS011;11708;50.570;8.532;2023-03-04T16:18:07;4.70;;;2.90;;
23080;SDS011;11708;50.570;8.532;2023-03-04T16:20:33;4.60;;;2.72;;
23080;SDS011;11708;50.570;8.532;2023-03-04T16:23:02;4.70;;;3.00;;
23080;SDS011;11708;50.570;8.532;2023-03-04T16:25:28;5.20;;;3.25;;
23080;SDS011;11708;50.570;8.532;2023-03-04T16:27:55;5.13;;;3.35;;
23080;SDS011;11708;50.570;8.532;2023-03-04T16:30:23;6.70;;;3.40;;
23080;SDS011;11708;50.570;8.532;2023-03-04T16:32:50;6.53;;;3.60;;
23080;SDS011;11708;50.570;8.532;2023-03-04T16:35:16;6.75;;;4.13;;
23080;SDS011;11708;50.570;8.532;2023-03-04T16:37:43;7.45;;;4.45;;
23080;SDS011;11708;50.570;8.532;2023-03-04T16:40:10;6.65;;;4.30;;
23080;SDS011;11708;50.570;8.532;2023-03-04T16:42:38;8.52;;;4.40;;
23080;SDS011;11708;50.570;8.532;2023-03-04T16:45:05;8.95;;;5.20;;
23080;SDS011;11708;50.570;8.532;2023-03-04T16:47:31;7.65;;;4.60;;
23080;SDS011;11708;50.570;8.532;2023-03-04T16:49:58;9.55;;;5.28;;